OSE120 LIRF-LIMJ
Flight info
| Callsign | OSE120 |
|---|---|
| Flight time | 0h 49m |
| Altitude | 24000 |
| Route | GILIO DCT ELB DCT BETEN M729 IDONA |
| Aircraft | B742/H-SDFHIRWXY/L |
Departure
| Time | 2026-05-08 19:21 |
|---|---|
| Airport | Rome–Fiumicino Leonardo da Vinci International Airport (LIRF) |
Arrival
| Time | 2026-05-08 20:11 |
|---|---|
| Airport | Genoa Cristoforo Colombo Airport (LIMJ) |
| Time | Latitude | Longitude | Altitude | Speed | Heading |
|---|---|---|---|---|---|
| 2026-05-08 18:49 | 41.80438 | 12.27107 | 15 ft | 0 kts | 160° |
| 2026-05-08 19:07 | 41.80444 | 12.27104 | 15 ft | 2 kts | 161° |
| 2026-05-08 19:08 | 41.80459 | 12.27098 | 15 ft | 2 kts | 160° |
| 2026-05-08 19:08 | 41.80473 | 12.27091 | 15 ft | 2 kts | 159° |
| 2026-05-08 19:08 | 41.80486 | 12.27084 | 15 ft | 2 kts | 160° |
| 2026-05-08 19:08 | 41.80499 | 12.27076 | 15 ft | 2 kts | 140° |
| 2026-05-08 19:09 | 41.80506 | 12.27060 | 15 ft | 2 kts | 106° |
| 2026-05-08 19:09 | 41.80507 | 12.27046 | 15 ft | 1 kts | 80° |
| 2026-05-08 19:09 | 41.80506 | 12.27042 | 15 ft | 2 kts | 73° |
| 2026-05-08 19:10 | 41.80499 | 12.27027 | 15 ft | 1 kts | 41° |
| 2026-05-08 19:10 | 41.80488 | 12.27018 | 15 ft | 0 kts | 24° |
| 2026-05-08 19:10 | 41.80485 | 12.27016 | 15 ft | 0 kts | 8° |
| 2026-05-08 19:10 | 41.80480 | 12.27016 | 15 ft | 0 kts | 7° |
| 2026-05-08 19:11 | 41.80475 | 12.27014 | 15 ft | 0 kts | 23° |
| 2026-05-08 19:11 | 41.80473 | 12.27012 | 15 ft | 0 kts | 24° |
| 2026-05-08 19:14 | 41.80473 | 12.27013 | 15 ft | 0 kts | 24° |
| 2026-05-08 19:14 | 41.80530 | 12.27047 | 15 ft | 3 kts | 23° |
| 2026-05-08 19:15 | 41.80548 | 12.27058 | 15 ft | 0 kts | 23° |
| 2026-05-08 19:15 | 41.80565 | 12.27068 | 15 ft | 0 kts | 24° |
| 2026-05-08 19:19 | 41.80566 | 12.27069 | 15 ft | 2 kts | 23° |
| 2026-05-08 19:19 | 41.80607 | 12.27076 | 15 ft | 10 kts | 356° |
| 2026-05-08 19:19 | 41.80711 | 12.27057 | 15 ft | 20 kts | 352° |
| 2026-05-08 19:19 | 41.80861 | 12.27010 | 15 ft | 21 kts | 340° |
| 2026-05-08 19:20 | 41.80938 | 12.26873 | 15 ft | 0 kts | 263° |
| 2026-05-08 19:20 | 41.80868 | 12.26623 | 16 ft | 52 kts | 248° |
| 2026-05-08 19:20 | 41.80674 | 12.25946 | 18 ft | 103 kts | 250° |
| 2026-05-08 19:21 | 41.80365 | 12.24831 | 17 ft | 150 kts | 249° |
| 2026-05-08 19:21 | 41.79959 | 12.23368 | 59 ft | 180 kts | 249° |
| 2026-05-08 19:21 | 41.79538 | 12.21872 | 593 ft | 164 kts | 245° |
| 2026-05-08 19:21 | 41.79088 | 12.20395 | 681 ft | 181 kts | 245° |
| 2026-05-08 19:22 | 41.78702 | 12.18770 | 961 ft | 183 kts | 263° |
| 2026-05-08 19:22 | 41.78708 | 12.17063 | 1221 ft | 189 kts | 276° |
| 2026-05-08 19:22 | 41.78894 | 12.15285 | 1457 ft | 196 kts | 270° |
| 2026-05-08 19:22 | 41.78645 | 12.13471 | 1736 ft | 202 kts | 252° |
| 2026-05-08 19:23 | 41.78206 | 12.11674 | 2156 ft | 206 kts | 251° |
| 2026-05-08 19:23 | 41.77853 | 12.09815 | 2579 ft | 207 kts | 274° |
| 2026-05-08 19:23 | 41.78265 | 12.08034 | 2967 ft | 205 kts | 302° |
| 2026-05-08 19:23 | 41.78801 | 12.06266 | 3366 ft | 208 kts | 278° |
| 2026-05-08 19:24 | 41.78939 | 12.04289 | 3670 ft | 217 kts | 274° |
| 2026-05-08 19:24 | 41.78992 | 12.02230 | 3897 ft | 233 kts | 272° |
| 2026-05-08 19:24 | 41.79011 | 11.99984 | 4092 ft | 251 kts | 271° |
| 2026-05-08 19:24 | 41.79013 | 11.97565 | 4449 ft | 263 kts | 271° |
| 2026-05-08 19:25 | 41.79010 | 11.95081 | 4905 ft | 271 kts | 271° |
| 2026-05-08 19:25 | 41.79004 | 11.92550 | 5410 ft | 275 kts | 271° |
| 2026-05-08 19:25 | 41.78998 | 11.90029 | 5902 ft | 273 kts | 271° |
| 2026-05-08 19:25 | 41.78990 | 11.87473 | 6373 ft | 272 kts | 271° |
| 2026-05-08 19:26 | 41.79017 | 11.84951 | 6795 ft | 270 kts | 279° |
| 2026-05-08 19:26 | 41.79627 | 11.82625 | 7131 ft | 268 kts | 301° |
| 2026-05-08 19:26 | 41.80573 | 11.80507 | 7522 ft | 267 kts | 303° |
| 2026-05-08 19:26 | 41.81540 | 11.78391 | 7902 ft | 267 kts | 302° |
| 2026-05-08 19:27 | 41.82503 | 11.76252 | 8261 ft | 268 kts | 302° |
| 2026-05-08 19:27 | 41.83466 | 11.74093 | 8603 ft | 269 kts | 301° |
| 2026-05-08 19:27 | 41.84420 | 11.71944 | 8932 ft | 270 kts | 301° |
| 2026-05-08 19:27 | 41.85377 | 11.69785 | 9245 ft | 271 kts | 301° |
| 2026-05-08 19:28 | 41.86340 | 11.67610 | 9554 ft | 272 kts | 301° |
| 2026-05-08 19:28 | 41.87302 | 11.65433 | 9859 ft | 273 kts | 301° |
| 2026-05-08 19:28 | 41.88267 | 11.63248 | 10164 ft | 274 kts | 301° |
| 2026-05-08 19:28 | 41.89234 | 11.61060 | 10473 ft | 274 kts | 301° |
| 2026-05-08 19:29 | 41.90273 | 11.58904 | 10745 ft | 275 kts | 311° |
| 2026-05-08 19:29 | 41.91565 | 11.57023 | 11028 ft | 275 kts | 314° |
| 2026-05-08 19:29 | 41.92903 | 11.55175 | 11320 ft | 276 kts | 314° |
| 2026-05-08 19:29 | 41.94228 | 11.53327 | 11556 ft | 278 kts | 314° |
| 2026-05-08 19:30 | 41.95561 | 11.51449 | 11792 ft | 281 kts | 313° |
| 2026-05-08 19:30 | 41.96916 | 11.49534 | 12025 ft | 283 kts | 313° |
| 2026-05-08 19:30 | 41.98269 | 11.47618 | 12249 ft | 286 kts | 313° |
| 2026-05-08 19:30 | 41.99659 | 11.45650 | 12488 ft | 289 kts | 313° |
| 2026-05-08 19:31 | 42.01037 | 11.43696 | 12714 ft | 293 kts | 313° |
| 2026-05-08 19:31 | 42.02441 | 11.41702 | 12945 ft | 296 kts | 313° |
| 2026-05-08 19:31 | 42.03868 | 11.39677 | 13161 ft | 299 kts | 313° |
| 2026-05-08 19:31 | 42.05311 | 11.37628 | 13396 ft | 303 kts | 313° |
| 2026-05-08 19:32 | 42.06766 | 11.35557 | 13617 ft | 307 kts | 312° |
| 2026-05-08 19:32 | 42.08240 | 11.33449 | 13854 ft | 311 kts | 311° |
| 2026-05-08 19:32 | 42.09716 | 11.31315 | 14087 ft | 315 kts | 311° |
| 2026-05-08 19:32 | 42.11207 | 11.29170 | 14315 ft | 319 kts | 311° |
| 2026-05-08 19:33 | 42.12732 | 11.26983 | 14537 ft | 323 kts | 311° |
| 2026-05-08 19:33 | 42.14297 | 11.24743 | 14785 ft | 327 kts | 311° |
| 2026-05-08 19:33 | 42.15852 | 11.22520 | 15014 ft | 332 kts | 311° |
| 2026-05-08 19:33 | 42.17459 | 11.20222 | 15232 ft | 337 kts | 311° |
| 2026-05-08 19:34 | 42.19066 | 11.17925 | 15471 ft | 342 kts | 311° |
| 2026-05-08 19:34 | 42.20696 | 11.15591 | 15694 ft | 347 kts | 311° |
| 2026-05-08 19:34 | 42.22362 | 11.13202 | 15926 ft | 352 kts | 311° |
| 2026-05-08 19:34 | 42.24044 | 11.10791 | 16156 ft | 357 kts | 311° |
| 2026-05-08 19:35 | 42.25756 | 11.08332 | 16372 ft | 363 kts | 311° |
| 2026-05-08 19:35 | 42.27507 | 11.05817 | 16600 ft | 369 kts | 311° |
| 2026-05-08 19:35 | 42.29269 | 11.03284 | 16852 ft | 374 kts | 311° |
| 2026-05-08 19:35 | 42.31066 | 11.00699 | 17067 ft | 381 kts | 311° |
| 2026-05-08 19:36 | 42.32890 | 10.98071 | 17294 ft | 387 kts | 311° |
| 2026-05-08 19:36 | 42.34720 | 10.95434 | 17515 ft | 393 kts | 311° |
| 2026-05-08 19:36 | 42.36618 | 10.92700 | 17761 ft | 399 kts | 312° |
| 2026-05-08 19:36 | 42.38567 | 10.90006 | 17910 ft | 407 kts | 312° |
| 2026-05-08 19:37 | 42.40522 | 10.87176 | 17938 ft | 418 kts | 311° |
| 2026-05-08 19:37 | 42.42499 | 10.84278 | 17954 ft | 427 kts | 311° |
| 2026-05-08 19:37 | 42.44513 | 10.81337 | 17955 ft | 414 kts | 311° |
| 2026-05-08 19:37 | 42.46417 | 10.78565 | 17939 ft | 398 kts | 311° |
| 2026-05-08 19:38 | 42.48278 | 10.75858 | 17938 ft | 382 kts | 311° |
| 2026-05-08 19:38 | 42.50056 | 10.73271 | 17952 ft | 373 kts | 311° |
| 2026-05-08 19:38 | 42.51820 | 10.70702 | 17957 ft | 373 kts | 311° |
| 2026-05-08 19:38 | 42.53592 | 10.68120 | 17960 ft | 376 kts | 311° |
| 2026-05-08 19:39 | 42.55375 | 10.65525 | 17949 ft | 377 kts | 311° |
| 2026-05-08 19:39 | 42.57148 | 10.62941 | 17953 ft | 377 kts | 311° |
| 2026-05-08 19:39 | 42.58923 | 10.60355 | 17952 ft | 378 kts | 311° |
| 2026-05-08 19:39 | 42.60705 | 10.57754 | 17963 ft | 378 kts | 311° |
| 2026-05-08 19:40 | 42.62509 | 10.55120 | 17961 ft | 378 kts | 311° |
| 2026-05-08 19:40 | 42.64289 | 10.52520 | 17957 ft | 377 kts | 311° |
| 2026-05-08 19:40 | 42.66056 | 10.49933 | 17957 ft | 377 kts | 311° |
| 2026-05-08 19:40 | 42.67853 | 10.47303 | 17943 ft | 376 kts | 311° |
| 2026-05-08 19:41 | 42.69635 | 10.44692 | 17951 ft | 376 kts | 311° |
| 2026-05-08 19:41 | 42.71394 | 10.42110 | 17960 ft | 378 kts | 311° |
| 2026-05-08 19:41 | 42.73280 | 10.39603 | 17971 ft | 379 kts | 321° |
| 2026-05-08 19:41 | 42.75402 | 10.37519 | 17961 ft | 378 kts | 318° |
| 2026-05-08 19:42 | 42.77174 | 10.34924 | 17964 ft | 375 kts | 302° |
| 2026-05-08 19:42 | 42.78354 | 10.31792 | 17966 ft | 374 kts | 287° |
| 2026-05-08 19:42 | 42.79026 | 10.28380 | 17965 ft | 373 kts | 286° |
| 2026-05-08 19:42 | 42.80089 | 10.25158 | 17967 ft | 378 kts | 301° |
| 2026-05-08 19:43 | 42.81767 | 10.22407 | 17960 ft | 381 kts | 316° |
| 2026-05-08 19:43 | 42.83958 | 10.20329 | 17972 ft | 383 kts | 332° |
| 2026-05-08 19:43 | 42.86454 | 10.19087 | 17956 ft | 386 kts | 343° |
| 2026-05-08 19:43 | 42.89058 | 10.18147 | 17965 ft | 385 kts | 342° |
| 2026-05-08 19:44 | 42.91576 | 10.17026 | 17976 ft | 384 kts | 338° |
| 2026-05-08 19:44 | 42.94046 | 10.15695 | 17968 ft | 383 kts | 335° |
| 2026-05-08 19:44 | 42.96478 | 10.14245 | 17964 ft | 378 kts | 333° |
| 2026-05-08 19:44 | 42.98823 | 10.12791 | 17957 ft | 363 kts | 333° |
| 2026-05-08 19:45 | 43.01073 | 10.11376 | 17957 ft | 350 kts | 333° |
| 2026-05-08 19:45 | 43.03274 | 10.09985 | 17947 ft | 347 kts | 333° |
| 2026-05-08 19:45 | 43.05481 | 10.08587 | 17968 ft | 351 kts | 333° |
| 2026-05-08 19:45 | 43.07701 | 10.07183 | 17979 ft | 354 kts | 333° |
| 2026-05-08 19:46 | 43.09928 | 10.05776 | 17954 ft | 353 kts | 333° |
| 2026-05-08 19:46 | 43.12120 | 10.04343 | 17960 ft | 352 kts | 331° |
| 2026-05-08 19:46 | 43.16568 | 10.01246 | 17158 ft | 359 kts | 330° |
| 2026-05-08 19:47 | 43.18776 | 9.99696 | 16741 ft | 356 kts | 331° |
| 2026-05-08 19:47 | 43.20987 | 9.98148 | 16322 ft | 353 kts | 331° |
| 2026-05-08 19:47 | 43.23147 | 9.96635 | 15914 ft | 351 kts | 331° |
| 2026-05-08 19:47 | 43.25309 | 9.95120 | 15499 ft | 348 kts | 332° |
| 2026-05-08 19:48 | 43.27465 | 9.93608 | 15079 ft | 346 kts | 332° |
| 2026-05-08 19:48 | 43.29576 | 9.92129 | 14673 ft | 343 kts | 332° |
| 2026-05-08 19:48 | 43.31693 | 9.90641 | 14279 ft | 341 kts | 332° |
| 2026-05-08 19:48 | 43.33802 | 9.89160 | 13877 ft | 338 kts | 332° |
| 2026-05-08 19:49 | 43.35886 | 9.87694 | 13482 ft | 335 kts | 332° |
| 2026-05-08 19:49 | 43.37936 | 9.86252 | 13082 ft | 333 kts | 332° |
| 2026-05-08 19:49 | 43.39997 | 9.84800 | 12678 ft | 330 kts | 332° |
| 2026-05-08 19:49 | 43.42034 | 9.83364 | 12271 ft | 328 kts | 332° |
| 2026-05-08 19:50 | 43.44031 | 9.81955 | 11866 ft | 326 kts | 333° |
| 2026-05-08 19:50 | 43.46059 | 9.80522 | 11452 ft | 324 kts | 333° |
| 2026-05-08 19:50 | 43.48042 | 9.79121 | 11054 ft | 322 kts | 333° |
| 2026-05-08 19:50 | 43.50022 | 9.77722 | 10678 ft | 319 kts | 333° |
| 2026-05-08 19:51 | 43.51988 | 9.76331 | 10307 ft | 316 kts | 333° |
| 2026-05-08 19:51 | 43.53901 | 9.74977 | 10057 ft | 309 kts | 333° |
| 2026-05-08 19:51 | 43.55772 | 9.73651 | 9980 ft | 295 kts | 333° |
| 2026-05-08 19:51 | 43.57570 | 9.72374 | 9970 ft | 290 kts | 333° |
| 2026-05-08 19:52 | 43.59387 | 9.71085 | 9974 ft | 292 kts | 333° |
| 2026-05-08 19:52 | 43.61194 | 9.69802 | 9975 ft | 293 kts | 333° |
| 2026-05-08 19:52 | 43.62991 | 9.68526 | 9973 ft | 293 kts | 333° |
| 2026-05-08 19:52 | 43.64812 | 9.67231 | 9972 ft | 294 kts | 333° |
| 2026-05-08 19:53 | 43.66639 | 9.65931 | 9975 ft | 294 kts | 333° |
| 2026-05-08 19:53 | 43.68436 | 9.64651 | 9970 ft | 288 kts | 333° |
| 2026-05-08 19:53 | 43.70202 | 9.63392 | 9970 ft | 285 kts | 333° |
| 2026-05-08 19:53 | 43.71955 | 9.62143 | 9972 ft | 286 kts | 333° |
| 2026-05-08 19:54 | 43.73719 | 9.60885 | 9899 ft | 286 kts | 333° |
| 2026-05-08 19:54 | 43.75497 | 9.59616 | 9550 ft | 289 kts | 333° |
| 2026-05-08 19:54 | 43.77266 | 9.58352 | 9197 ft | 284 kts | 333° |
| 2026-05-08 19:54 | 43.79022 | 9.57096 | 8823 ft | 281 kts | 333° |
| 2026-05-08 19:55 | 43.80740 | 9.55866 | 8455 ft | 279 kts | 334° |
| 2026-05-08 19:55 | 43.82459 | 9.54636 | 8088 ft | 278 kts | 334° |
| 2026-05-08 19:55 | 43.84171 | 9.53409 | 7723 ft | 276 kts | 334° |
| 2026-05-08 19:55 | 43.85884 | 9.52182 | 7354 ft | 275 kts | 334° |
| 2026-05-08 19:56 | 43.87571 | 9.50972 | 6993 ft | 274 kts | 334° |
| 2026-05-08 19:56 | 43.89250 | 9.49766 | 6634 ft | 272 kts | 334° |
| 2026-05-08 19:56 | 43.90931 | 9.48559 | 6271 ft | 271 kts | 334° |
| 2026-05-08 19:56 | 43.92561 | 9.47389 | 5942 ft | 259 kts | 334° |
| 2026-05-08 19:57 | 43.94112 | 9.46274 | 5714 ft | 243 kts | 334° |
| 2026-05-08 19:57 | 43.95577 | 9.45219 | 5452 ft | 231 kts | 334° |
| 2026-05-08 19:57 | 43.96972 | 9.44215 | 5140 ft | 221 kts | 334° |
| 2026-05-08 19:57 | 43.98294 | 9.43272 | 4985 ft | 208 kts | 338° |
| 2026-05-08 19:58 | 43.99664 | 9.42782 | 4966 ft | 207 kts | 351° |
| 2026-05-08 19:58 | 44.01080 | 9.42405 | 4975 ft | 205 kts | 351° |
| 2026-05-08 19:58 | 44.02482 | 9.42030 | 4958 ft | 203 kts | 351° |
| 2026-05-08 19:58 | 44.03877 | 9.41655 | 4957 ft | 205 kts | 351° |
| 2026-05-08 19:59 | 44.05265 | 9.41281 | 4955 ft | 202 kts | 351° |
| 2026-05-08 19:59 | 44.06617 | 9.40916 | 4950 ft | 195 kts | 351° |
| 2026-05-08 19:59 | 44.07946 | 9.40558 | 4951 ft | 195 kts | 351° |
| 2026-05-08 19:59 | 44.09279 | 9.40198 | 4950 ft | 195 kts | 351° |
| 2026-05-08 20:00 | 44.10615 | 9.39837 | 4947 ft | 194 kts | 351° |
| 2026-05-08 20:00 | 44.11943 | 9.39477 | 4944 ft | 190 kts | 350° |
| 2026-05-08 20:00 | 44.13216 | 9.39132 | 4942 ft | 187 kts | 350° |
| 2026-05-08 20:00 | 44.14492 | 9.38783 | 4945 ft | 186 kts | 349° |
| 2026-05-08 20:01 | 44.15619 | 9.37911 | 4952 ft | 192 kts | 306° |
| 2026-05-08 20:01 | 44.16078 | 9.36183 | 4962 ft | 196 kts | 279° |
| 2026-05-08 20:01 | 44.16273 | 9.34308 | 4936 ft | 192 kts | 289° |
| 2026-05-08 20:01 | 44.16835 | 9.32613 | 4768 ft | 200 kts | 302° |
| 2026-05-08 20:02 | 44.17604 | 9.31012 | 4392 ft | 195 kts | 310° |
| 2026-05-08 20:02 | 44.18529 | 9.29716 | 4140 ft | 184 kts | 320° |
| 2026-05-08 20:02 | 44.19486 | 9.28540 | 4040 ft | 184 kts | 320° |
| 2026-05-08 20:02 | 44.20452 | 9.27364 | 3970 ft | 183 kts | 321° |
| 2026-05-08 20:03 | 44.21552 | 9.26566 | 3967 ft | 181 kts | 341° |
| 2026-05-08 20:03 | 44.22743 | 9.26016 | 3950 ft | 181 kts | 343° |
| 2026-05-08 20:03 | 44.23947 | 9.25477 | 3948 ft | 181 kts | 343° |
| 2026-05-08 20:03 | 44.25148 | 9.24941 | 3953 ft | 180 kts | 343° |
| 2026-05-08 20:04 | 44.26340 | 9.24407 | 3956 ft | 180 kts | 343° |
| 2026-05-08 20:04 | 44.27532 | 9.23866 | 3962 ft | 181 kts | 343° |
| 2026-05-08 20:04 | 44.28739 | 9.23323 | 3962 ft | 181 kts | 343° |
| 2026-05-08 20:04 | 44.29858 | 9.22559 | 3957 ft | 183 kts | 315° |
| 2026-05-08 20:05 | 44.30772 | 9.21277 | 3968 ft | 185 kts | 318° |
| 2026-05-08 20:05 | 44.31696 | 9.20049 | 3963 ft | 183 kts | 318° |
| 2026-05-08 20:05 | 44.32615 | 9.18826 | 3967 ft | 184 kts | 317° |
| 2026-05-08 20:05 | 44.33406 | 9.17423 | 3972 ft | 185 kts | 305° |
| 2026-05-08 20:06 | 44.34069 | 9.15902 | 3968 ft | 183 kts | 300° |
| 2026-05-08 20:06 | 44.34623 | 9.14280 | 3974 ft | 184 kts | 294° |
| 2026-05-08 20:06 | 44.35051 | 9.12595 | 3913 ft | 187 kts | 289° |
| 2026-05-08 20:06 | 44.35409 | 9.10858 | 3784 ft | 184 kts | 287° |
| 2026-05-08 20:07 | 44.35744 | 9.09129 | 3566 ft | 184 kts | 288° |
| 2026-05-08 20:07 | 44.36090 | 9.07415 | 3282 ft | 180 kts | 289° |
| 2026-05-08 20:07 | 44.36446 | 9.05759 | 3031 ft | 177 kts | 289° |
| 2026-05-08 20:07 | 44.36809 | 9.04127 | 2802 ft | 176 kts | 290° |
| 2026-05-08 20:08 | 44.37174 | 9.02511 | 2572 ft | 176 kts | 290° |
| 2026-05-08 20:08 | 44.37544 | 9.00871 | 2321 ft | 176 kts | 290° |
| 2026-05-08 20:08 | 44.37907 | 8.99243 | 2082 ft | 177 kts | 290° |
| 2026-05-08 20:08 | 44.38270 | 8.97615 | 1842 ft | 175 kts | 290° |
| 2026-05-08 20:09 | 44.38632 | 8.95985 | 1593 ft | 173 kts | 290° |
| 2026-05-08 20:09 | 44.38990 | 8.94370 | 1364 ft | 175 kts | 290° |
| 2026-05-08 20:09 | 44.39345 | 8.92769 | 1120 ft | 175 kts | 290° |
| 2026-05-08 20:09 | 44.39706 | 8.91137 | 892 ft | 176 kts | 290° |
| 2026-05-08 20:10 | 44.40069 | 8.89504 | 658 ft | 175 kts | 292° |
| 2026-05-08 20:10 | 44.40444 | 8.87888 | 382 ft | 175 kts | 289° |
| 2026-05-08 20:10 | 44.40778 | 8.86278 | 162 ft | 172 kts | 288° |
| 2026-05-08 20:10 | 44.41087 | 8.84757 | 39 ft | 141 kts | 285° |
| 2026-05-08 20:11 | 44.41302 | 8.83678 | 37 ft | 91 kts | 283° |
| 2026-05-08 20:11 | 44.41414 | 8.83176 | 38 ft | 35 kts | 310° |
| 2026-05-08 20:11 | 44.41512 | 8.83119 | 38 ft | 3 kts | 33° |
| 2026-05-08 20:11 | 44.41513 | 8.83121 | 38 ft | 0 kts | 36° |
| 2026-05-08 20:12 | 44.41514 | 8.83121 | 38 ft | 0 kts | 38° |
| 2026-05-08 20:12 | 44.41521 | 8.83133 | 38 ft | 6 kts | 56° |
| 2026-05-08 20:12 | 44.41527 | 8.83284 | 38 ft | 27 kts | 99° |
| 2026-05-08 20:12 | 44.41471 | 8.83594 | 38 ft | 34 kts | 106° |
| 2026-05-08 20:13 | 44.41407 | 8.83914 | 38 ft | 34 kts | 106° |
| 2026-05-08 20:13 | 44.41347 | 8.84214 | 38 ft | 25 kts | 106° |
| 2026-05-08 20:13 | 44.41354 | 8.84457 | 39 ft | 25 kts | 62° |
| 2026-05-08 20:13 | 44.41453 | 8.84661 | 40 ft | 25 kts | 54° |
| 2026-05-08 20:14 | 44.41497 | 8.84836 | 41 ft | 13 kts | 89° |
| 2026-05-08 20:14 | 44.41491 | 8.84905 | 40 ft | 0 kts | 103° |